sensor_id;sensor_type;location;lat;lon;timestamp;temperature;humidity
420;DHT22;42600;54.408;13.016;2022-08-19T00:00:08;22.20;92.70
420;DHT22;42600;54.408;13.016;2022-08-19T00:02:35;22.20;92.40
420;DHT22;42600;54.408;13.016;2022-08-19T00:05:03;22.20;92.70
420;DHT22;42600;54.408;13.016;2022-08-19T00:07:30;22.10;92.70
420;DHT22;42600;54.408;13.016;2022-08-19T00:09:57;22.20;92.70
420;DHT22;42600;54.408;13.016;2022-08-19T00:12:25;22.10;92.70
420;DHT22;42600;54.408;13.016;2022-08-19T00:14:51;22.00;92.70
420;DHT22;42600;54.408;13.016;2022-08-19T00:17:19;21.90;92.70
420;DHT22;42600;54.408;13.016;2022-08-19T00:19:46;21.70;92.70
420;DHT22;42600;54.408;13.016;2022-08-19T00:22:13;21.70;92.70
420;DHT22;42600;54.408;13.016;2022-08-19T00:24:40;21.60;92.70
420;DHT22;42600;54.408;13.016;2022-08-19T00:27:09;21.60;92.70
420;DHT22;42600;54.408;13.016;2022-08-19T00:29:37;21.60;92.70
420;DHT22;42600;54.408;13.016;2022-08-19T00:32:05;21.60;92.70
420;DHT22;42600;54.408;13.016;2022-08-19T00:34:32;21.60;92.70
420;DHT22;42600;54.408;13.016;2022-08-19T00:36:58;21.50;92.70
420;DHT22;42600;54.408;13.016;2022-08-19T00:39:25;21.30;92.70
420;DHT22;42600;54.408;13.016;2022-08-19T00:41:52;21.10;92.70
420;DHT22;42600;54.408;13.016;2022-08-19T00:44:21;21.00;92.70
420;DHT22;42600;54.408;13.016;2022-08-19T00:46:51;20.90;92.70
420;DHT22;42600;54.408;13.016;2022-08-19T00:49:20;20.80;92.70
420;DHT22;42600;54.408;13.016;2022-08-19T00:51:51;20.70;92.70
420;DHT22;42600;54.408;13.016;2022-08-19T00:54:19;20.70;92.70
420;DHT22;42600;54.408;13.016;2022-08-19T00:56:47;20.70;92.70
420;DHT22;42600;54.408;13.016;2022-08-19T00:59:14;20.70;92.70
420;DHT22;42600;54.408;13.016;2022-08-19T01:01:42;20.70;92.70
420;DHT22;42600;54.408;13.016;2022-08-19T01:04:11;20.60;92.70
420;DHT22;42600;54.408;13.016;2022-08-19T01:06:38;20.60;92.70
420;DHT22;42600;54.408;13.016;2022-08-19T01:09:06;20.60;92.70
420;DHT22;42600;54.408;13.016;2022-08-19T01:11:35;20.60;92.70
420;DHT22;42600;54.408;13.016;2022-08-19T01:14:03;20.50;92.70
420;DHT22;42600;54.408;13.016;2022-08-19T01:16:30;20.50;92.70
420;DHT22;42600;54.408;13.016;2022-08-19T01:18:57;20.50;92.70
420;DHT22;42600;54.408;13.016;2022-08-19T01:21:33;20.50;92.70
420;DHT22;42600;54.408;13.016;2022-08-19T01:24:02;20.40;92.70
420;DHT22;42600;54.408;13.016;2022-08-19T01:26:29;20.50;92.70
420;DHT22;42600;54.408;13.016;2022-08-19T01:28:58;20.50;92.70
420;DHT22;42600;54.408;13.016;2022-08-19T01:31:28;20.50;92.70
420;DHT22;42600;54.408;13.016;2022-08-19T01:33:57;20.40;92.70
420;DHT22;42600;54.408;13.016;2022-08-19T01:36:29;20.30;92.70
420;DHT22;42600;54.408;13.016;2022-08-19T01:38:56;20.20;92.70
420;DHT22;42600;54.408;13.016;2022-08-19T01:41:26;20.20;92.70
420;DHT22;42600;54.408;13.016;2022-08-19T01:43:53;20.10;92.70
420;DHT22;42600;54.408;13.016;2022-08-19T01:46:19;20.10;92.70
420;DHT22;42600;54.408;13.016;2022-08-19T01:48:46;20.10;92.70
420;DHT22;42600;54.408;13.016;2022-08-19T01:51:14;20.10;92.70
420;DHT22;42600;54.408;13.016;2022-08-19T01:53:41;20.10;92.70
420;DHT22;42600;54.408;13.016;2022-08-19T01:56:08;20.10;92.70
420;DHT22;42600;54.408;13.016;2022-08-19T01:58:43;20.10;92.70
420;DHT22;42600;54.408;13.016;2022-08-19T02:01:11;20.20;92.70
420;DHT22;42600;54.408;13.016;2022-08-19T02:03:39;20.30;92.70
420;DHT22;42600;54.408;13.016;2022-08-19T02:06:06;20.30;92.70
420;DHT22;42600;54.408;13.016;2022-08-19T02:08:34;20.20;92.70
420;DHT22;42600;54.408;13.016;2022-08-19T02:11:01;20.30;92.70
420;DHT22;42600;54.408;13.016;2022-08-19T02:13:29;20.30;92.70
420;DHT22;42600;54.408;13.016;2022-08-19T02:15:57;20.20;92.70
420;DHT22;42600;54.408;13.016;2022-08-19T02:18:23;20.20;92.70
420;DHT22;42600;54.408;13.016;2022-08-19T02:20:52;20.20;92.70
420;DHT22;42600;54.408;13.016;2022-08-19T02:23:18;20.10;92.70
420;DHT22;42600;54.408;13.016;2022-08-19T02:25:46;20.00;92.70
420;DHT22;42600;54.408;13.016;2022-08-19T02:28:14;19.90;92.70
420;DHT22;42600;54.408;13.016;2022-08-19T02:30:41;19.80;92.70
420;DHT22;42600;54.408;13.016;2022-08-19T02:33:09;19.70;92.70
420;DHT22;42600;54.408;13.016;2022-08-19T02:35:36;19.60;92.70
420;DHT22;42600;54.408;13.016;2022-08-19T02:38:02;19.50;92.70
420;DHT22;42600;54.408;13.016;2022-08-19T02:40:51;19.50;92.70
420;DHT22;42600;54.408;13.016;2022-08-19T02:43:19;19.50;92.70
420;DHT22;42600;54.408;13.016;2022-08-19T02:45:46;19.50;92.70
420;DHT22;42600;54.408;13.016;2022-08-19T02:48:15;19.50;92.70
420;DHT22;42600;54.408;13.016;2022-08-19T02:50:43;19.40;92.70
420;DHT22;42600;54.408;13.016;2022-08-19T02:53:10;19.40;92.70
420;DHT22;42600;54.408;13.016;2022-08-19T02:55:42;19.40;92.70
420;DHT22;42600;54.408;13.016;2022-08-19T02:58:09;19.50;92.70
420;DHT22;42600;54.408;13.016;2022-08-19T03:00:41;19.50;92.70
420;DHT22;42600;54.408;13.016;2022-08-19T03:03:09;19.50;92.70
420;DHT22;42600;54.408;13.016;2022-08-19T03:05:36;19.50;92.70
420;DHT22;42600;54.408;13.016;2022-08-19T03:08:03;19.60;92.70
420;DHT22;42600;54.408;13.016;2022-08-19T03:10:31;19.60;92.70
420;DHT22;42600;54.408;13.016;2022-08-19T03:12:58;19.70;92.70
420;DHT22;42600;54.408;13.016;2022-08-19T03:15:24;19.70;92.70
420;DHT22;42600;54.408;13.016;2022-08-19T03:17:51;19.70;92.70
420;DHT22;42600;54.408;13.016;2022-08-19T03:20:18;19.60;92.70
420;DHT22;42600;54.408;13.016;2022-08-19T03:22:46;19.60;92.70
420;DHT22;42600;54.408;13.016;2022-08-19T03:25:13;19.60;92.70
420;DHT22;42600;54.408;13.016;2022-08-19T03:27:39;19.80;92.70
420;DHT22;42600;54.408;13.016;2022-08-19T03:30:07;19.80;92.70
420;DHT22;42600;54.408;13.016;2022-08-19T03:32:34;19.80;92.70
420;DHT22;42600;54.408;13.016;2022-08-19T03:35:00;19.70;92.70
420;DHT22;42600;54.408;13.016;2022-08-19T03:37:27;19.60;92.70
420;DHT22;42600;54.408;13.016;2022-08-19T03:39:55;19.60;92.70
420;DHT22;42600;54.408;13.016;2022-08-19T03:42:21;19.50;92.70
420;DHT22;42600;54.408;13.016;2022-08-19T03:44:48;19.50;92.70
420;DHT22;42600;54.408;13.016;2022-08-19T03:47:14;19.50;92.70
420;DHT22;42600;54.408;13.016;2022-08-19T03:49:42;19.50;92.70
420;DHT22;42600;54.408;13.016;2022-08-19T03:52:09;19.50;92.70
420;DHT22;42600;54.408;13.016;2022-08-19T03:54:36;19.50;92.70
420;DHT22;42600;54.408;13.016;2022-08-19T03:57:05;19.50;92.70
420;DHT22;42600;54.408;13.016;2022-08-19T03:59:34;19.40;92.70
420;DHT22;42600;54.408;13.016;2022-08-19T04:02:06;19.40;92.70
420;DHT22;42600;54.408;13.016;2022-08-19T04:04:34;19.40;92.70
420;DHT22;42600;54.408;13.016;2022-08-19T04:07:01;19.40;92.70
420;DHT22;42600;54.408;13.016;2022-08-19T04:09:27;19.40;92.70
420;DHT22;42600;54.408;13.016;2022-08-19T04:11:55;19.40;92.70
420;DHT22;42600;54.408;13.016;2022-08-19T04:14:25;19.40;92.70
420;DHT22;42600;54.408;13.016;2022-08-19T04:16:54;19.40;92.70
420;DHT22;42600;54.408;13.016;2022-08-19T04:19:20;19.40;92.70
420;DHT22;42600;54.408;13.016;2022-08-19T04:21:50;19.40;92.70
420;DHT22;42600;54.408;13.016;2022-08-19T04:24:18;19.40;92.70
420;DHT22;42600;54.408;13.016;2022-08-19T04:26:45;19.50;92.70
420;DHT22;42600;54.408;13.016;2022-08-19T04:29:15;19.50;92.70
420;DHT22;42600;54.408;13.016;2022-08-19T04:31:44;19.60;92.70
420;DHT22;42600;54.408;13.016;2022-08-19T04:34:13;19.70;92.70
420;DHT22;42600;54.408;13.016;2022-08-19T04:36:42;19.70;92.70
420;DHT22;42600;54.408;13.016;2022-08-19T04:39:12;19.70;92.70
420;DHT22;42600;54.408;13.016;2022-08-19T04:41:38;19.70;92.70
420;DHT22;42600;54.408;13.016;2022-08-19T04:44:22;19.80;92.70
420;DHT22;42600;54.408;13.016;2022-08-19T04:46:51;19.80;92.70
420;DHT22;42600;54.408;13.016;2022-08-19T04:49:19;19.80;92.70
420;DHT22;42600;54.408;13.016;2022-08-19T04:51:47;19.80;92.70
420;DHT22;42600;54.408;13.016;2022-08-19T04:54:15;19.90;92.70
420;DHT22;42600;54.408;13.016;2022-08-19T04:56:42;19.80;92.70
420;DHT22;42600;54.408;13.016;2022-08-19T04:59:09;19.90;92.70
420;DHT22;42600;54.408;13.016;2022-08-19T05:01:36;19.90;92.70
420;DHT22;42600;54.408;13.016;2022-08-19T05:04:06;20.00;92.70
420;DHT22;42600;54.408;13.016;2022-08-19T05:06:34;20.00;92.70
420;DHT22;42600;54.408;13.016;2022-08-19T05:09:01;20.00;92.70
420;DHT22;42600;54.408;13.016;2022-08-19T05:11:30;20.00;92.70
420;DHT22;42600;54.408;13.016;2022-08-19T05:13:58;20.00;92.70
420;DHT22;42600;54.408;13.016;2022-08-19T05:16:26;20.00;92.70
420;DHT22;42600;54.408;13.016;2022-08-19T05:18:53;20.10;92.70
420;DHT22;42600;54.408;13.016;2022-08-19T05:21:40;20.10;92.70
420;DHT22;42600;54.408;13.016;2022-08-19T05:24:24;20.10;92.70
420;DHT22;42600;54.408;13.016;2022-08-19T05:26:52;20.20;92.70
420;DHT22;42600;54.408;13.016;2022-08-19T05:29:23;20.20;92.70
420;DHT22;42600;54.408;13.016;2022-08-19T05:31:50;20.30;92.70
420;DHT22;42600;54.408;13.016;2022-08-19T05:34:18;20.30;92.70
420;DHT22;42600;54.408;13.016;2022-08-19T05:36:46;20.50;92.70
420;DHT22;42600;54.408;13.016;2022-08-19T05:39:15;20.50;92.70
420;DHT22;42600;54.408;13.016;2022-08-19T05:41:42;20.50;92.70
420;DHT22;42600;54.408;13.016;2022-08-19T05:44:10;20.50;92.70
420;DHT22;42600;54.408;13.016;2022-08-19T05:46:37;20.50;92.70
420;DHT22;42600;54.408;13.016;2022-08-19T05:49:05;20.50;92.70
420;DHT22;42600;54.408;13.016;2022-08-19T05:51:32;20.60;92.70
420;DHT22;42600;54.408;13.016;2022-08-19T05:54:01;20.70;92.70
420;DHT22;42600;54.408;13.016;2022-08-19T05:56:28;20.60;92.70
420;DHT22;42600;54.408;13.016;2022-08-19T05:58:55;20.60;92.70
420;DHT22;42600;54.408;13.016;2022-08-19T06:01:25;20.50;92.70
420;DHT22;42600;54.408;13.016;2022-08-19T06:03:52;20.60;92.70
420;DHT22;42600;54.408;13.016;2022-08-19T06:06:20;20.70;92.70
420;DHT22;42600;54.408;13.016;2022-08-19T06:08:46;20.80;92.70
420;DHT22;42600;54.408;13.016;2022-08-19T06:11:19;20.70;92.70
420;DHT22;42600;54.408;13.016;2022-08-19T06:13:48;20.80;92.70
420;DHT22;42600;54.408;13.016;2022-08-19T06:16:16;20.80;92.70
420;DHT22;42600;54.408;13.016;2022-08-19T06:18:48;20.70;92.70
420;DHT22;42600;54.408;13.016;2022-08-19T06:21:17;20.70;92.70
420;DHT22;42600;54.408;13.016;2022-08-19T06:23:44;20.70;92.70
420;DHT22;42600;54.408;13.016;2022-08-19T06:26:12;20.70;92.70
420;DHT22;42600;54.408;13.016;2022-08-19T06:28:40;20.80;92.70
420;DHT22;42600;54.408;13.016;2022-08-19T06:31:09;20.80;92.70
420;DHT22;42600;54.408;13.016;2022-08-19T06:33:36;20.80;92.70
420;DHT22;42600;54.408;13.016;2022-08-19T06:36:04;20.90;92.70
420;DHT22;42600;54.408;13.016;2022-08-19T06:38:31;20.90;92.70
420;DHT22;42600;54.408;13.016;2022-08-19T06:41:03;20.90;92.70
420;DHT22;42600;54.408;13.016;2022-08-19T06:43:30;20.90;92.70
420;DHT22;42600;54.408;13.016;2022-08-19T06:45:58;20.90;92.70
420;DHT22;42600;54.408;13.016;2022-08-19T06:48:26;20.90;92.70
420;DHT22;42600;54.408;13.016;2022-08-19T06:50:53;20.90;92.70
420;DHT22;42600;54.408;13.016;2022-08-19T06:53:19;20.90;92.70
420;DHT22;42600;54.408;13.016;2022-08-19T06:55:46;20.90;92.70
420;DHT22;42600;54.408;13.016;2022-08-19T06:58:12;21.00;92.70
420;DHT22;42600;54.408;13.016;2022-08-19T07:00:39;21.10;92.70
420;DHT22;42600;54.408;13.016;2022-08-19T07:03:07;21.10;92.70
420;DHT22;42600;54.408;13.016;2022-08-19T07:05:38;21.10;92.70
420;DHT22;42600;54.408;13.016;2022-08-19T07:08:05;21.10;92.70
420;DHT22;42600;54.408;13.016;2022-08-19T07:10:32;21.10;92.70
420;DHT22;42600;54.408;13.016;2022-08-19T07:13:00;21.10;92.70
420;DHT22;42600;54.408;13.016;2022-08-19T07:15:27;21.10;92.70
420;DHT22;42600;54.408;13.016;2022-08-19T07:17:53;21.20;92.70
420;DHT22;42600;54.408;13.016;2022-08-19T07:20:21;21.20;92.70
420;DHT22;42600;54.408;13.016;2022-08-19T07:22:49;21.20;92.70
420;DHT22;42600;54.408;13.016;2022-08-19T07:25:16;21.20;92.70
420;DHT22;42600;54.408;13.016;2022-08-19T07:27:43;21.10;92.70
420;DHT22;42600;54.408;13.016;2022-08-19T07:30:10;21.20;92.70
420;DHT22;42600;54.408;13.016;2022-08-19T07:32:38;21.30;92.70
420;DHT22;42600;54.408;13.016;2022-08-19T07:35:06;21.20;92.70
420;DHT22;42600;54.408;13.016;2022-08-19T07:37:34;21.20;92.70
420;DHT22;42600;54.408;13.016;2022-08-19T07:40:03;21.20;92.70
420;DHT22;42600;54.408;13.016;2022-08-19T07:42:30;21.30;92.70
420;DHT22;42600;54.408;13.016;2022-08-19T07:44:57;21.30;92.70
420;DHT22;42600;54.408;13.016;2022-08-19T07:47:24;21.30;92.70
420;DHT22;42600;54.408;13.016;2022-08-19T07:49:50;21.30;92.70
420;DHT22;42600;54.408;13.016;2022-08-19T07:52:17;21.40;92.70
420;DHT22;42600;54.408;13.016;2022-08-19T07:54:45;21.30;92.70
420;DHT22;42600;54.408;13.016;2022-08-19T07:57:11;21.30;92.70
420;DHT22;42600;54.408;13.016;2022-08-19T07:59:39;21.30;92.70
420;DHT22;42600;54.408;13.016;2022-08-19T08:02:06;21.40;92.70
420;DHT22;42600;54.408;13.016;2022-08-19T08:04:32;21.50;92.70
420;DHT22;42600;54.408;13.016;2022-08-19T08:07:16;21.50;92.70
420;DHT22;42600;54.408;13.016;2022-08-19T08:10:04;21.50;92.70
420;DHT22;42600;54.408;13.016;2022-08-19T08:12:37;21.60;92.70
420;DHT22;42600;54.408;13.016;2022-08-19T08:15:09;21.60;92.70
420;DHT22;42600;54.408;13.016;2022-08-19T08:17:36;21.60;92.70
420;DHT22;42600;54.408;13.016;2022-08-19T08:20:04;21.60;92.70
420;DHT22;42600;54.408;13.016;2022-08-19T08:22:32;21.70;92.70
420;DHT22;42600;54.408;13.016;2022-08-19T08:25:22;21.70;92.70
420;DHT22;42600;54.408;13.016;2022-08-19T08:27:49;21.60;92.70
420;DHT22;42600;54.408;13.016;2022-08-19T08:30:18;21.60;92.70
420;DHT22;42600;54.408;13.016;2022-08-19T08:32:44;21.60;92.70
420;DHT22;42600;54.408;13.016;2022-08-19T08:35:14;21.60;92.70
420;DHT22;42600;54.408;13.016;2022-08-19T08:37:42;21.70;92.70
420;DHT22;42600;54.408;13.016;2022-08-19T08:40:20;21.70;92.70
420;DHT22;42600;54.408;13.016;2022-08-19T08:42:53;21.70;92.70
420;DHT22;42600;54.408;13.016;2022-08-19T08:45:24;21.80;92.70
420;DHT22;42600;54.408;13.016;2022-08-19T08:47:52;21.80;92.70
420;DHT22;42600;54.408;13.016;2022-08-19T08:50:23;21.90;92.70
420;DHT22;42600;54.408;13.016;2022-08-19T08:52:52;21.80;92.70
420;DHT22;42600;54.408;13.016;2022-08-19T08:55:27;21.90;92.70
420;DHT22;42600;54.408;13.016;2022-08-19T08:57:58;21.90;92.70
420;DHT22;42600;54.408;13.016;2022-08-19T09:00:28;21.90;92.70
420;DHT22;42600;54.408;13.016;2022-08-19T09:02:57;21.90;92.70
420;DHT22;42600;54.408;13.016;2022-08-19T09:05:25;21.90;92.70
420;DHT22;42600;54.408;13.016;2022-08-19T09:08:00;21.90;92.70
420;DHT22;42600;54.408;13.016;2022-08-19T09:10:33;22.00;92.70
420;DHT22;42600;54.408;13.016;2022-08-19T09:13:06;22.00;92.70
420;DHT22;42600;54.408;13.016;2022-08-19T09:15:40;22.10;92.70
420;DHT22;42600;54.408;13.016;2022-08-19T09:18:08;22.10;92.70
420;DHT22;42600;54.408;13.016;2022-08-19T09:20:35;22.10;92.70
420;DHT22;42600;54.408;13.016;2022-08-19T09:23:02;22.20;92.70
420;DHT22;42600;54.408;13.016;2022-08-19T09:25:30;22.20;92.70
420;DHT22;42600;54.408;13.016;2022-08-19T09:27:57;22.30;92.70
420;DHT22;42600;54.408;13.016;2022-08-19T09:30:29;22.20;92.70
420;DHT22;42600;54.408;13.016;2022-08-19T09:32:56;22.10;92.70
420;DHT22;42600;54.408;13.016;2022-08-19T09:35:25;21.90;92.70
420;DHT22;42600;54.408;13.016;2022-08-19T09:37:53;21.70;92.70
420;DHT22;42600;54.408;13.016;2022-08-19T09:40:19;21.60;92.70
420;DHT22;42600;54.408;13.016;2022-08-19T09:42:47;21.50;92.70
420;DHT22;42600;54.408;13.016;2022-08-19T09:45:15;21.60;92.70
420;DHT22;42600;54.408;13.016;2022-08-19T09:47:42;21.60;92.70
420;DHT22;42600;54.408;13.016;2022-08-19T09:50:11;21.60;92.70
420;DHT22;42600;54.408;13.016;2022-08-19T09:52:38;21.60;92.70
420;DHT22;42600;54.408;13.016;2022-08-19T09:55:06;21.60;92.70
420;DHT22;42600;54.408;13.016;2022-08-19T09:57:34;21.60;92.70
420;DHT22;42600;54.408;13.016;2022-08-19T10:00:04;21.60;92.70
420;DHT22;42600;54.408;13.016;2022-08-19T10:02:31;21.60;92.70
420;DHT22;42600;54.408;13.016;2022-08-19T10:04:57;21.60;92.70
420;DHT22;42600;54.408;13.016;2022-08-19T10:07:38;21.60;92.70
420;DHT22;42600;54.408;13.016;2022-08-19T10:10:06;21.60;92.70
420;DHT22;42600;54.408;13.016;2022-08-19T10:12:34;21.60;92.70
420;DHT22;42600;54.408;13.016;2022-08-19T10:15:05;21.60;92.70
420;DHT22;42600;54.408;13.016;2022-08-19T10:17:32;21.70;92.70
420;DHT22;42600;54.408;13.016;2022-08-19T10:20:00;21.70;92.70
420;DHT22;42600;54.408;13.016;2022-08-19T10:22:28;21.70;92.70
420;DHT22;42600;54.408;13.016;2022-08-19T10:24:54;21.70;92.70
420;DHT22;42600;54.408;13.016;2022-08-19T10:27:22;21.70;92.70
420;DHT22;42600;54.408;13.016;2022-08-19T10:29:48;21.60;92.70
420;DHT22;42600;54.408;13.016;2022-08-19T10:32:16;21.60;92.70
420;DHT22;42600;54.408;13.016;2022-08-19T10:34:43;21.50;92.70
420;DHT22;42600;54.408;13.016;2022-08-19T10:37:10;21.50;92.70
420;DHT22;42600;54.408;13.016;2022-08-19T10:39:36;21.40;92.70
420;DHT22;42600;54.408;13.016;2022-08-19T10:42:05;21.40;92.70
420;DHT22;42600;54.408;13.016;2022-08-19T10:44:32;21.40;92.70
420;DHT22;42600;54.408;13.016;2022-08-19T10:47:02;21.30;92.70
420;DHT22;42600;54.408;13.016;2022-08-19T10:49:31;21.30;92.70
420;DHT22;42600;54.408;13.016;2022-08-19T10:52:17;21.30;92.70
420;DHT22;42600;54.408;13.016;2022-08-19T10:55:04;21.30;92.70
420;DHT22;42600;54.408;13.016;2022-08-19T10:57:48;21.40;92.70
420;DHT22;42600;54.408;13.016;2022-08-19T11:00:15;21.30;92.70
420;DHT22;42600;54.408;13.016;2022-08-19T11:02:42;21.20;92.70
420;DHT22;42600;54.408;13.016;2022-08-19T11:05:10;21.30;92.70
420;DHT22;42600;54.408;13.016;2022-08-19T11:07:37;21.30;92.70
420;DHT22;42600;54.408;13.016;2022-08-19T11:10:05;21.20;92.70
420;DHT22;42600;54.408;13.016;2022-08-19T11:12:32;21.20;92.70
420;DHT22;42600;54.408;13.016;2022-08-19T11:14:59;21.10;92.70
420;DHT22;42600;54.408;13.016;2022-08-19T11:17:25;21.20;92.70
420;DHT22;42600;54.408;13.016;2022-08-19T11:19:52;21.20;92.70
420;DHT22;42600;54.408;13.016;2022-08-19T11:22:20;21.30;92.70
420;DHT22;42600;54.408;13.016;2022-08-19T11:24:46;21.40;92.70
420;DHT22;42600;54.408;13.016;2022-08-19T11:27:13;21.40;92.70
420;DHT22;42600;54.408;13.016;2022-08-19T11:29:40;21.40;92.70
420;DHT22;42600;54.408;13.016;2022-08-19T11:32:09;21.40;92.70
420;DHT22;42600;54.408;13.016;2022-08-19T11:34:36;21.30;92.70
420;DHT22;42600;54.408;13.016;2022-08-19T11:37:05;21.30;92.70
420;DHT22;42600;54.408;13.016;2022-08-19T11:39:36;21.40;92.70
420;DHT22;42600;54.408;13.016;2022-08-19T11:42:05;21.40;92.70
420;DHT22;42600;54.408;13.016;2022-08-19T11:44:52;21.50;92.70
420;DHT22;42600;54.408;13.016;2022-08-19T11:47:19;21.40;92.70
420;DHT22;42600;54.408;13.016;2022-08-19T11:49:46;21.50;92.70
420;DHT22;42600;54.408;13.016;2022-08-19T11:52:13;21.50;92.70
420;DHT22;42600;54.408;13.016;2022-08-19T11:54:41;21.50;92.70
420;DHT22;42600;54.408;13.016;2022-08-19T11:57:07;21.50;92.70
420;DHT22;42600;54.408;13.016;2022-08-19T11:59:34;21.70;92.70
420;DHT22;42600;54.408;13.016;2022-08-19T12:02:00;21.70;92.70
420;DHT22;42600;54.408;13.016;2022-08-19T12:04:27;21.80;92.70
420;DHT22;42600;54.408;13.016;2022-08-19T12:06:53;21.70;92.70
420;DHT22;42600;54.408;13.016;2022-08-19T12:09:20;21.60;92.70
420;DHT22;42600;54.408;13.016;2022-08-19T12:11:48;21.70;92.70
420;DHT22;42600;54.408;13.016;2022-08-19T12:14:16;21.80;92.70
420;DHT22;42600;54.408;13.016;2022-08-19T12:16:45;21.70;92.70
420;DHT22;42600;54.408;13.016;2022-08-19T12:19:11;21.80;92.70
420;DHT22;42600;54.408;13.016;2022-08-19T12:21:38;21.90;92.70
420;DHT22;42600;54.408;13.016;2022-08-19T12:24:06;22.00;92.70
420;DHT22;42600;54.408;13.016;2022-08-19T12:26:33;22.00;92.70
420;DHT22;42600;54.408;13.016;2022-08-19T12:29:02;22.00;92.70
420;DHT22;42600;54.408;13.016;2022-08-19T12:31:29;22.00;92.70
420;DHT22;42600;54.408;13.016;2022-08-19T12:33:56;22.00;92.70
420;DHT22;42600;54.408;13.016;2022-08-19T12:36:23;22.00;92.70
420;DHT22;42600;54.408;13.016;2022-08-19T12:38:50;22.00;92.70
420;DHT22;42600;54.408;13.016;2022-08-19T12:41:18;22.20;92.70
420;DHT22;42600;54.408;13.016;2022-08-19T12:43:46;22.30;92.70
420;DHT22;42600;54.408;13.016;2022-08-19T12:46:16;22.30;92.70
420;DHT22;42600;54.408;13.016;2022-08-19T12:48:43;22.30;92.70
420;DHT22;42600;54.408;13.016;2022-08-19T12:51:13;22.30;92.70
420;DHT22;42600;54.408;13.016;2022-08-19T12:53:40;22.40;92.70
420;DHT22;42600;54.408;13.016;2022-08-19T12:56:07;22.50;92.70
420;DHT22;42600;54.408;13.016;2022-08-19T12:58:34;22.50;92.70
420;DHT22;42600;54.408;13.016;2022-08-19T13:01:06;22.50;92.70
420;DHT22;42600;54.408;13.016;2022-08-19T13:03:34;22.60;92.70
420;DHT22;42600;54.408;13.016;2022-08-19T13:06:02;22.60;92.70
420;DHT22;42600;54.408;13.016;2022-08-19T13:08:29;22.60;92.70
420;DHT22;42600;54.408;13.016;2022-08-19T13:10:55;22.50;92.70
420;DHT22;42600;54.408;13.016;2022-08-19T13:13:23;22.40;92.70
420;DHT22;42600;54.408;13.016;2022-08-19T13:15:51;22.30;92.70
420;DHT22;42600;54.408;13.016;2022-08-19T13:18:18;22.40;92.70
420;DHT22;42600;54.408;13.016;2022-08-19T13:20:46;22.50;92.70
420;DHT22;42600;54.408;13.016;2022-08-19T13:23:12;22.40;92.70
420;DHT22;42600;54.408;13.016;2022-08-19T13:25:39;22.40;92.70
420;DHT22;42600;54.408;13.016;2022-08-19T13:28:05;22.30;92.70
420;DHT22;42600;54.408;13.016;2022-08-19T13:30:33;22.20;92.70
420;DHT22;42600;54.408;13.016;2022-08-19T13:33:17;22.10;92.70
420;DHT22;42600;54.408;13.016;2022-08-19T13:35:48;22.20;92.70
420;DHT22;42600;54.408;13.016;2022-08-19T13:38:17;22.30;92.70
420;DHT22;42600;54.408;13.016;2022-08-19T13:40:44;22.40;92.70
420;DHT22;42600;54.408;13.016;2022-08-19T13:43:11;22.30;92.70
420;DHT22;42600;54.408;13.016;2022-08-19T13:45:39;22.20;92.70
420;DHT22;42600;54.408;13.016;2022-08-19T13:48:06;22.10;92.70
420;DHT22;42600;54.408;13.016;2022-08-19T13:50:37;22.10;92.70
420;DHT22;42600;54.408;13.016;2022-08-19T13:53:05;22.00;92.70
420;DHT22;42600;54.408;13.016;2022-08-19T13:55:32;22.00;92.70
420;DHT22;42600;54.408;13.016;2022-08-19T13:57:59;22.00;92.70
420;DHT22;42600;54.408;13.016;2022-08-19T14:00:28;21.90;92.70
420;DHT22;42600;54.408;13.016;2022-08-19T14:02:56;21.90;92.70
420;DHT22;42600;54.408;13.016;2022-08-19T14:05:24;21.90;92.70
420;DHT22;42600;54.408;13.016;2022-08-19T14:07:51;21.80;92.70
420;DHT22;42600;54.408;13.016;2022-08-19T14:10:20;21.80;92.70
420;DHT22;42600;54.408;13.016;2022-08-19T14:12:47;21.80;92.70
420;DHT22;42600;54.408;13.016;2022-08-19T14:15:14;21.70;92.70
420;DHT22;42600;54.408;13.016;2022-08-19T14:17:43;21.70;92.70
420;DHT22;42600;54.408;13.016;2022-08-19T14:20:11;21.80;92.70
420;DHT22;42600;54.408;13.016;2022-08-19T14:22:39;21.80;92.70
420;DHT22;42600;54.408;13.016;2022-08-19T14:25:09;21.90;92.70
420;DHT22;42600;54.408;13.016;2022-08-19T14:27:38;21.90;92.70
420;DHT22;42600;54.408;13.016;2022-08-19T14:30:07;21.90;92.70
420;DHT22;42600;54.408;13.016;2022-08-19T14:32:34;21.90;92.70
420;DHT22;42600;54.408;13.016;2022-08-19T14:35:01;22.10;92.70
420;DHT22;42600;54.408;13.016;2022-08-19T14:37:28;22.10;92.70
420;DHT22;42600;54.408;13.016;2022-08-19T14:39:54;22.00;92.70
420;DHT22;42600;54.408;13.016;2022-08-19T14:42:21;21.90;92.70
420;DHT22;42600;54.408;13.016;2022-08-19T14:44:49;21.80;92.70
420;DHT22;42600;54.408;13.016;2022-08-19T14:47:16;21.70;92.70
420;DHT22;42600;54.408;13.016;2022-08-19T14:49:42;21.70;92.70
420;DHT22;42600;54.408;13.016;2022-08-19T14:52:09;21.60;92.70
420;DHT22;42600;54.408;13.016;2022-08-19T14:54:35;21.60;92.70
420;DHT22;42600;54.408;13.016;2022-08-19T14:57:02;21.60;92.70
420;DHT22;42600;54.408;13.016;2022-08-19T14:59:29;21.60;92.70
420;DHT22;42600;54.408;13.016;2022-08-19T15:01:57;21.70;92.70
420;DHT22;42600;54.408;13.016;2022-08-19T15:04:25;21.90;92.70
420;DHT22;42600;54.408;13.016;2022-08-19T15:06:52;22.00;92.70
420;DHT22;42600;54.408;13.016;2022-08-19T15:09:19;22.00;92.70
420;DHT22;42600;54.408;13.016;2022-08-19T15:11:46;21.90;92.70
420;DHT22;42600;54.408;13.016;2022-08-19T15:14:14;21.80;92.70
420;DHT22;42600;54.408;13.016;2022-08-19T15:16:41;21.80;92.70
420;DHT22;42600;54.408;13.016;2022-08-19T15:19:09;21.80;92.70
420;DHT22;42600;54.408;13.016;2022-08-19T15:21:37;21.80;92.70
420;DHT22;42600;54.408;13.016;2022-08-19T15:24:04;21.80;92.70
420;DHT22;42600;54.408;13.016;2022-08-19T15:26:31;21.80;92.70
420;DHT22;42600;54.408;13.016;2022-08-19T15:28:58;22.00;92.70
420;DHT22;42600;54.408;13.016;2022-08-19T15:31:25;22.20;92.70
420;DHT22;42600;54.408;13.016;2022-08-19T15:33:53;22.30;92.70
420;DHT22;42600;54.408;13.016;2022-08-19T15:36:22;22.30;92.70
420;DHT22;42600;54.408;13.016;2022-08-19T15:38:49;22.30;92.70
420;DHT22;42600;54.408;13.016;2022-08-19T15:41:23;22.30;92.70
420;DHT22;42600;54.408;13.016;2022-08-19T15:43:52;22.40;92.70
420;DHT22;42600;54.408;13.016;2022-08-19T15:46:22;22.40;92.70
420;DHT22;42600;54.408;13.016;2022-08-19T15:48:50;22.40;92.70
420;DHT22;42600;54.408;13.016;2022-08-19T15:51:18;22.50;92.70